Time;durP1;ratioP1;P1;durP2;ratioP2;P2;SDS_P1;SDS_P2;PMS_P1;PMS_P2;Temp;Humidity;BMP_temperature;BMP_pressure;BME280_temperature;BME280_humidity;BME280_pressure;Samples;Min_cycle;Max_cycle;Signal;HPM_P1;HPM_P2
2023/06/18 00:01:13;;;;;;;7.15;6.43;;;;;;;;;;5070914;28;20045;-63
2023/06/18 00:03:39;;;;;;;8.50;7.47;;;;;;;;;;5052587;28;20127;-63
2023/06/18 00:06:04;;;;;;;7.07;5.82;;;;;;;;;;5070802;28;20484;-63
2023/06/18 00:08:30;;;;;;;5.97;5.50;;;;;;;;;;5070785;28;20124;-65
2023/06/18 00:10:55;;;;;;;6.93;6.07;;;;;;;;;;5070760;28;20041;-64
2023/06/18 00:13:22;;;;;;;6.60;5.95;;;;;;;;;;5069951;28;20090;-64
2023/06/18 00:15:48;;;;;;;7.10;6.40;;;;;;;;;;5071586;28;20029;-63
2023/06/18 00:18:13;;;;;;;6.60;5.70;;;;;;;;;;5072216;28;20396;-63
2023/06/18 00:20:39;;;;;;;6.18;5.63;;;;;;;;;;5076611;28;20102;-63
2023/06/18 00:23:04;;;;;;;6.68;6.05;;;;;;;;;;5056593;28;20083;-63
2023/06/18 00:25:30;;;;;;;6.57;5.97;;;;;;;;;;5073860;28;20040;-63
2023/06/18 00:27:55;;;;;;;6.78;6.18;;;;;;;;;;5074197;28;20041;-63
2023/06/18 00:30:21;;;;;;;6.97;6.03;;;;;;;;;;5056487;28;20037;-63
2023/06/18 00:32:48;;;;;;;7.50;6.35;;;;;;;;;;5074629;28;20098;-63
2023/06/18 00:35:17;;;;;;;7.18;6.07;;;;;;;;;;5039468;28;20044;-66
2023/06/18 00:37:43;;;;;;;6.55;6.00;;;;;;;;;;5074989;28;20051;-66
2023/06/18 00:40:09;;;;;;;6.40;5.80;;;;;;;;;;5073080;28;20083;-66
2023/06/18 00:42:36;;;;;;;6.57;6.07;;;;;;;;;;5074290;28;20415;-66
2023/06/18 00:45:02;;;;;;;6.90;6.28;;;;;;;;;;5073123;28;20079;-67
2023/06/18 00:47:28;;;;;;;6.70;6.10;;;;;;;;;;5073575;28;20037;-66
2023/06/18 00:49:55;;;;;;;8.75;6.68;;;;;;;;;;5073651;28;20494;-66
2023/06/18 00:52:23;;;;;;;6.88;6.20;;;;;;;;;;5072642;28;20043;-66
2023/06/18 00:54:50;;;;;;;7.97;6.60;;;;;;;;;;5072911;28;20040;-67
2023/06/18 00:57:17;;;;;;;7.20;6.50;;;;;;;;;;5074246;28;20501;-67
2023/06/18 00:59:43;;;;;;;7.45;6.75;;;;;;;;;;5074342;28;20127;-67
2023/06/18 01:02:09;;;;;;;7.45;6.88;;;;;;;;;;5074217;28;20076;-67
2023/06/18 01:04:36;;;;;;;7.82;6.85;;;;;;;;;;5072748;28;20098;-67
2023/06/18 01:07:02;;;;;;;8.15;6.95;;;;;;;;;;5072144;28;20047;-67
2023/06/18 01:09:28;;;;;;;8.25;7.50;;;;;;;;;;5073631;28;20040;-66
2023/06/18 01:11:53;;;;;;;9.98;7.63;;;;;;;;;;5073749;28;20516;-66
2023/06/18 01:14:25;;;;;;;8.75;7.85;;;;;;;;;;5073753;28;20044;-66
2023/06/18 01:16:53;;;;;;;6.75;6.18;;;;;;;;;;5073681;28;20029;-65
2023/06/18 01:19:40;;;;;;;7.85;6.70;;;;;;;;;;5072954;28;20558;-65
2023/06/18 01:22:26;;;;;;;7.07;6.40;;;;;;;;;;5073338;28;20040;-65
2023/06/18 01:24:54;;;;;;;8.50;6.35;;;;;;;;;;5073593;28;20072;-62
2023/06/18 01:27:23;;;;;;;7.18;6.57;;;;;;;;;;5073230;28;20054;-66
2023/06/18 01:29:51;;;;;;;7.85;6.68;;;;;;;;;;5070376;28;20041;-68
2023/06/18 01:32:17;;;;;;;7.57;6.35;;;;;;;;;;5053806;28;20567;-68
2023/06/18 01:34:43;;;;;;;6.60;6.00;;;;;;;;;;5053403;28;20128;-67
2023/06/18 01:37:09;;;;;;;6.20;5.63;;;;;;;;;;5088088;28;20052;-66
2023/06/18 01:39:51;;;;;;;6.38;5.82;;;;;;;;;;5093662;28;20062;-66
2023/06/18 01:42:16;;;;;;;6.70;6.20;;;;;;;;;;5093645;28;20040;-68
2023/06/18 01:44:43;;;;;;;8.07;7.03;;;;;;;;;;5093914;28;20119;-68
2023/06/18 01:47:11;;;;;;;7.60;6.30;;;;;;;;;;5076335;28;20131;-68
2023/06/18 01:49:37;;;;;;;6.40;5.80;;;;;;;;;;5093945;28;20071;-66
2023/06/18 01:52:03;;;;;;;6.70;6.13;;;;;;;;;;5075112;28;20042;-66
2023/06/18 01:54:28;;;;;;;5.93;5.38;;;;;;;;;;5074714;28;20101;-66
2023/06/18 01:56:54;;;;;;;6.57;6.05;;;;;;;;;;5093611;28;20460;-66
2023/06/18 01:59:20;;;;;;;7.32;5.97;;;;;;;;;;5075141;28;20051;-66
2023/06/18 02:01:45;;;;;;;7.20;6.07;;;;;;;;;;5075352;28;20040;-66
2023/06/18 02:04:11;;;;;;;8.43;7.63;;;;;;;;;;5075030;28;20043;-66
2023/06/18 02:06:36;;;;;;;8.27;7.45;;;;;;;;;;5093848;28;20123;-66
2023/06/18 02:09:04;;;;;;;8.80;8.00;;;;;;;;;;5074982;28;20135;-66
2023/06/18 02:11:30;;;;;;;8.77;8.05;;;;;;;;;;5092572;28;20032;-66
2023/06/18 02:13:55;;;;;;;8.48;7.63;;;;;;;;;;5074477;28;20036;-66
2023/06/18 02:16:21;;;;;;;8.57;7.70;;;;;;;;;;5074631;28;20035;-66
2023/06/18 02:18:46;;;;;;;8.57;7.28;;;;;;;;;;5092691;28;20032;-64
2023/06/18 02:21:11;;;;;;;7.07;6.38;;;;;;;;;;5074003;28;20091;-63
2023/06/18 02:23:37;;;;;;;7.28;6.57;;;;;;;;;;5074086;28;20094;-64
2023/06/18 02:26:03;;;;;;;6.70;6.10;;;;;;;;;;5092501;28;20047;-63
2023/06/18 02:28:29;;;;;;;7.20;6.60;;;;;;;;;;5074187;28;20044;-64
2023/06/18 02:30:55;;;;;;;7.07;6.47;;;;;;;;;;5092229;28;20036;-62
2023/06/18 02:33:22;;;;;;;8.00;6.53;;;;;;;;;;5092484;28;20047;-62
2023/06/18 02:35:48;;;;;;;9.05;7.15;;;;;;;;;;5074257;28;20051;-62
2023/06/18 02:38:13;;;;;;;7.55;6.80;;;;;;;;;;5074332;28;20384;-63
2023/06/18 02:40:39;;;;;;;6.75;6.07;;;;;;;;;;5074130;28;20036;-63
2023/06/18 02:43:05;;;;;;;7.35;6.68;;;;;;;;;;5091825;28;20036;-62
2023/06/18 02:45:31;;;;;;;6.90;6.35;;;;;;;;;;5092282;28;20205;-62
2023/06/18 02:47:56;;;;;;;7.07;6.38;;;;;;;;;;5073957;28;20032;-62
2023/06/18 02:50:22;;;;;;;6.93;6.32;;;;;;;;;;5091994;28;20032;-62
2023/06/18 02:52:48;;;;;;;6.95;6.25;;;;;;;;;;5073901;28;20042;-63
2023/06/18 02:55:14;;;;;;;6.28;5.78;;;;;;;;;;5057623;28;20395;-66
2023/06/18 02:57:40;;;;;;;6.28;5.70;;;;;;;;;;5092664;28;20090;-67
2023/06/18 03:00:09;;;;;;;6.72;5.78;;;;;;;;;;5092007;28;20040;-65
2023/06/18 03:02:35;;;;;;;6.30;5.85;;;;;;;;;;5073752;28;20097;-65
2023/06/18 03:05:03;;;;;;;6.40;5.90;;;;;;;;;;5073167;28;20067;-63
2023/06/18 03:07:30;;;;;;;6.18;5.68;;;;;;;;;;5091435;28;20038;-63
2023/06/18 03:09:56;;;;;;;8.15;6.70;;;;;;;;;;5091141;28;20048;-61
2023/06/18 03:12:21;;;;;;;6.97;6.38;;;;;;;;;;5072372;28;20123;-62
2023/06/18 03:14:48;;;;;;;8.27;6.45;;;;;;;;;;5073017;28;20036;-61
2023/06/18 03:17:14;;;;;;;7.70;6.95;;;;;;;;;;5072676;28;20039;-61
2023/06/18 03:19:39;;;;;;;6.55;6.00;;;;;;;;;;5072692;28;20352;-61
2023/06/18 03:22:05;;;;;;;7.32;6.57;;;;;;;;;;5073302;28;20115;-61
2023/06/18 03:24:32;;;;;;;6.72;6.20;;;;;;;;;;5073284;28;20475;-63
2023/06/18 03:26:58;;;;;;;5.82;5.40;;;;;;;;;;5091364;28;20290;-62
2023/06/18 03:29:30;;;;;;;6.18;5.68;;;;;;;;;;5072883;28;20554;-62
2023/06/18 03:31:56;;;;;;;6.82;6.32;;;;;;;;;;5073007;28;20456;-65
2023/06/18 03:34:22;;;;;;;6.93;6.40;;;;;;;;;;5071895;28;20123;-65
2023/06/18 03:36:49;;;;;;;6.32;5.82;;;;;;;;;;5051340;28;20484;-67
2023/06/18 03:39:15;;;;;;;7.80;6.93;;;;;;;;;;5050262;28;20094;-67
2023/06/18 03:41:41;;;;;;;7.10;6.30;;;;;;;;;;5033966;28;20092;-65
2023/06/18 03:44:07;;;;;;;7.22;6.25;;;;;;;;;;5050245;28;20630;-65
2023/06/18 03:46:32;;;;;;;6.40;5.90;;;;;;;;;;5051058;28;20031;-65
2023/06/18 03:48:58;;;;;;;6.90;6.20;;;;;;;;;;5049562;28;20496;-66
2023/06/18 03:51:25;;;;;;;8.43;7.55;;;;;;;;;;5050365;28;20083;-64
2023/06/18 03:53:51;;;;;;;8.20;7.45;;;;;;;;;;5049163;28;20033;-64
2023/06/18 03:56:21;;;;;;;7.28;6.65;;;;;;;;;;5049888;28;20041;-61
2023/06/18 03:58:48;;;;;;;7.43;6.82;;;;;;;;;;5050953;28;20541;-61
2023/06/18 04:01:14;;;;;;;6.60;6.05;;;;;;;;;;5049626;28;20037;-63
2023/06/18 04:03:39;;;;;;;8.48;6.97;;;;;;;;;;5049300;28;20499;-63
2023/06/18 04:06:05;;;;;;;7.57;6.78;;;;;;;;;;5049604;28;20114;-62
2023/06/18 04:08:30;;;;;;;7.47;6.78;;;;;;;;;;5050797;28;20037;-62
2023/06/18 04:10:56;;;;;;;8.57;7.82;;;;;;;;;;5049403;28;20049;-62
2023/06/18 04:13:22;;;;;;;7.80;7.05;;;;;;;;;;5050631;28;20031;-61
2023/06/18 04:15:48;;;;;;;9.10;7.15;;;;;;;;;;5049696;28;20662;-62
2023/06/18 04:18:16;;;;;;;7.47;6.85;;;;;;;;;;5049310;28;20071;-62
2023/06/18 04:20:43;;;;;;;7.97;7.28;;;;;;;;;;5049052;28;20036;-62
2023/06/18 04:23:09;;;;;;;7.90;7.13;;;;;;;;;;5049242;28;20052;-62
2023/06/18 04:25:35;;;;;;;11.00;9.50;;;;;;;;;;5049024;28;20435;-62
2023/06/18 04:28:01;;;;;;;11.60;9.73;;;;;;;;;;5049309;28;20021;-66
2023/06/18 04:30:27;;;;;;;10.38;9.10;;;;;;;;;;5048737;28;20515;-68
2023/06/18 04:32:53;;;;;;;11.70;9.90;;;;;;;;;;5048731;28;20067;-64
2023/06/18 04:35:19;;;;;;;13.02;11.68;;;;;;;;;;5052839;28;20106;-64
2023/06/18 04:37:45;;;;;;;14.88;10.85;;;;;;;;;;5052385;28;20037;-64
2023/06/18 04:40:11;;;;;;;13.63;11.32;;;;;;;;;;5052600;28;20049;-64
2023/06/18 04:42:38;;;;;;;11.63;10.05;;;;;;;;;;5069879;28;20082;-63
2023/06/18 04:45:05;;;;;;;10.55;9.35;;;;;;;;;;5051737;28;20064;-63
2023/06/18 04:47:32;;;;;;;10.80;9.48;;;;;;;;;;5035600;28;20161;-64
2023/06/18 04:49:58;;;;;;;10.55;9.10;;;;;;;;;;5051979;28;20056;-64
2023/06/18 04:52:23;;;;;;;11.65;9.00;;;;;;;;;;5051894;28;20494;-68
2023/06/18 04:54:52;;;;;;;12.38;9.40;;;;;;;;;;5035086;28;20039;-67
2023/06/18 04:57:19;;;;;;;11.18;10.02;;;;;;;;;;5050360;28;20043;-67
2023/06/18 04:59:45;;;;;;;10.13;9.13;;;;;;;;;;5050028;28;20110;-66
2023/06/18 05:02:11;;;;;;;10.13;9.07;;;;;;;;;;5034491;28;20504;-66
2023/06/18 05:04:36;;;;;;;12.00;10.70;;;;;;;;;;5077473;28;20101;-62
2023/06/18 05:07:01;;;;;;;12.40;10.05;;;;;;;;;;5074010;28;20028;-62
2023/06/18 05:09:28;;;;;;;11.63;9.88;;;;;;;;;;5070891;28;20037;-64
2023/06/18 05:11:54;;;;;;;10.93;9.68;;;;;;;;;;5074657;28;20115;-63
2023/06/18 05:14:24;;;;;;;11.50;9.88;;;;;;;;;;5069343;28;20064;-69
2023/06/18 05:16:49;;;;;;;13.80;9.88;;;;;;;;;;5072945;28;20036;-64
2023/06/18 05:19:15;;;;;;;11.43;10.25;;;;;;;;;;5055448;28;20437;-63
2023/06/18 05:21:41;;;;;;;13.40;10.02;;;;;;;;;;5037207;28;20388;-57
2023/06/18 05:24:18;;;;;;;12.10;9.85;;;;;;;;;;5036840;28;20044;-61
2023/06/18 05:26:44;;;;;;;14.13;9.15;;;;;;;;;;5037737;28;20404;-63
2023/06/18 05:29:10;;;;;;;12.32;9.68;;;;;;;;;;5065227;28;20041;-62
2023/06/18 05:31:35;;;;;;;11.52;9.30;;;;;;;;;;5071681;28;20039;-63
2023/06/18 05:34:04;;;;;;;12.15;9.93;;;;;;;;;;5071328;28;20037;-64
2023/06/18 05:36:30;;;;;;;11.73;9.77;;;;;;;;;;5071256;28;20421;-63
2023/06/18 05:38:59;;;;;;;19.02;10.43;;;;;;;;;;5071029;28;20041;-67
2023/06/18 05:41:26;;;;;;;10.70;9.68;;;;;;;;;;5070923;28;20036;-67
2023/06/18 05:43:51;;;;;;;10.93;9.60;;;;;;;;;;5073694;28;20546;-67
2023/06/18 05:46:17;;;;;;;10.95;8.82;;;;;;;;;;5073950;28;20044;-67
2023/06/18 05:48:42;;;;;;;14.82;8.95;;;;;;;;;;5072377;28;20083;-67
2023/06/18 05:51:13;;;;;;;10.38;9.30;;;;;;;;;;5071475;28;20657;-63
2023/06/18 05:53:38;;;;;;;12.77;11.05;;;;;;;;;;5072251;28;20082;-63
2023/06/18 05:56:05;;;;;;;16.05;11.57;;;;;;;;;;5071346;28;20039;-63
2023/06/18 05:58:31;;;;;;;12.63;9.98;;;;;;;;;;5071250;28;20388;-67
2023/06/18 06:00:57;;;;;;;10.70;8.98;;;;;;;;;;5072804;28;20044;-67
2023/06/18 06:03:22;;;;;;;12.27;10.07;;;;;;;;;;5072441;28;20044;-67
2023/06/18 06:05:47;;;;;;;10.80;8.88;;;;;;;;;;5073434;28;20551;-67
2023/06/18 06:08:13;;;;;;;10.90;9.10;;;;;;;;;;5073181;28;20032;-66
2023/06/18 06:10:40;;;;;;;11.30;9.07;;;;;;;;;;5054964;28;20119;-64
2023/06/18 06:13:06;;;;;;;10.43;8.30;;;;;;;;;;5071582;28;20120;-63
2023/06/18 06:15:31;;;;;;;13.05;9.48;;;;;;;;;;5070865;28;20043;-63
2023/06/18 06:17:57;;;;;;;12.80;9.07;;;;;;;;;;5069660;28;20033;-63
2023/06/18 06:20:22;;;;;;;12.00;9.00;;;;;;;;;;5070856;28;20136;-63
2023/06/18 06:22:49;;;;;;;11.10;9.30;;;;;;;;;;5070556;28;20040;-59
2023/06/18 06:25:15;;;;;;;9.68;8.13;;;;;;;;;;5054051;28;20032;-63
2023/06/18 06:27:41;;;;;;;12.27;9.00;;;;;;;;;;5053724;28;20043;-64
2023/06/18 06:30:08;;;;;;;10.70;8.25;;;;;;;;;;5070281;28;20036;-63
2023/06/18 06:32:34;;;;;;;12.55;8.93;;;;;;;;;;5070539;28;20036;-63
2023/06/18 06:35:01;;;;;;;10.80;8.35;;;;;;;;;;5070942;28;20043;-63
2023/06/18 06:37:27;;;;;;;11.88;8.35;;;;;;;;;;5073831;28;20044;-63
2023/06/18 06:39:54;;;;;;;11.15;8.27;;;;;;;;;;5073448;28;20500;-63
2023/06/18 06:42:21;;;;;;;12.02;8.10;;;;;;;;;;5057007;28;20054;-63
2023/06/18 06:45:06;;;;;;;8.70;7.80;;;;;;;;;;5092003;28;20047;-63
2023/06/18 06:47:46;;;;;;;8.30;7.55;;;;;;;;;;5091726;28;20469;-63
2023/06/18 06:50:34;;;;;;;7.80;7.10;;;;;;;;;;5079133;28;20514;-63
2023/06/18 06:53:13;;;;;;;10.13;7.45;;;;;;;;;;5085760;28;20464;-63
2023/06/18 06:55:39;;;;;;;8.43;7.30;;;;;;;;;;5071571;28;20550;-63
2023/06/18 06:58:04;;;;;;;8.43;6.80;;;;;;;;;;5071755;28;20040;-63
2023/06/18 07:00:30;;;;;;;7.68;6.88;;;;;;;;;;5071320;28;20036;-63
2023/06/18 07:02:55;;;;;;;8.07;6.35;;;;;;;;;;5072483;28;20372;-63
2023/06/18 07:05:20;;;;;;;7.78;6.80;;;;;;;;;;5072456;28;20128;-63
2023/06/18 07:07:46;;;;;;;8.07;6.72;;;;;;;;;;5072730;28;20043;-63
2023/06/18 07:10:11;;;;;;;6.65;6.03;;;;;;;;;;5072447;28;20036;-63
2023/06/18 07:12:36;;;;;;;6.57;5.97;;;;;;;;;;5090576;28;20040;-63
2023/06/18 07:15:02;;;;;;;7.53;6.35;;;;;;;;;;5072988;28;20047;-63
2023/06/18 07:17:27;;;;;;;6.82;6.22;;;;;;;;;;5091856;28;20036;-63
2023/06/18 07:19:53;;;;;;;6.85;6.18;;;;;;;;;;5091313;28;20042;-63
2023/06/18 07:22:19;;;;;;;6.07;5.50;;;;;;;;;;5091986;28;20472;-63
2023/06/18 07:24:44;;;;;;;5.97;5.40;;;;;;;;;;5091953;28;20047;-63
2023/06/18 07:27:10;;;;;;;5.68;5.28;;;;;;;;;;5091732;28;20032;-63
2023/06/18 07:29:35;;;;;;;5.80;5.07;;;;;;;;;;5091553;28;20048;-63
2023/06/18 07:32:00;;;;;;;5.15;4.65;;;;;;;;;;5091767;28;20048;-63
2023/06/18 07:34:26;;;;;;;4.40;4.10;;;;;;;;;;5091362;28;20032;-63
2023/06/18 07:36:51;;;;;;;5.15;4.78;;;;;;;;;;5091390;28;20044;-63
2023/06/18 07:39:17;;;;;;;7.40;5.82;;;;;;;;;;5056024;28;20039;-63
2023/06/18 07:41:47;;;;;;;6.13;5.53;;;;;;;;;;5090733;28;20070;-63
2023/06/18 07:44:12;;;;;;;5.28;4.88;;;;;;;;;;5090567;28;20479;-63
2023/06/18 07:46:38;;;;;;;5.38;4.88;;;;;;;;;;5089670;28;20102;-63
2023/06/18 07:49:03;;;;;;;5.70;5.18;;;;;;;;;;5090933;28;20032;-63
2023/06/18 07:51:29;;;;;;;5.70;5.18;;;;;;;;;;5091382;28;20640;-62
2023/06/18 07:53:54;;;;;;;5.13;4.60;;;;;;;;;;5091169;28;20054;-63
2023/06/18 07:56:20;;;;;;;4.93;4.53;;;;;;;;;;5090415;28;20044;-63
2023/06/18 07:58:45;;;;;;;5.53;5.03;;;;;;;;;;5073039;28;20184;-63
2023/06/18 08:01:10;;;;;;;7.40;5.97;;;;;;;;;;5073063;28;20032;-63
2023/06/18 08:03:35;;;;;;;7.22;6.47;;;;;;;;;;5090981;28;20485;-62
2023/06/18 08:06:01;;;;;;;8.15;6.60;;;;;;;;;;5091183;28;20078;-63
2023/06/18 08:08:26;;;;;;;5.88;5.47;;;;;;;;;;5091138;28;20032;-63
2023/06/18 08:10:52;;;;;;;6.72;5.10;;;;;;;;;;5090982;28;20386;-63
2023/06/18 08:13:17;;;;;;;6.10;5.53;;;;;;;;;;5090698;28;20077;-63
2023/06/18 08:15:42;;;;;;;6.85;6.15;;;;;;;;;;5090400;28;20048;-63
2023/06/18 08:18:08;;;;;;;9.82;6.75;;;;;;;;;;5090720;28;20061;-63
2023/06/18 08:20:33;;;;;;;8.57;6.40;;;;;;;;;;5090349;28;20084;-63
2023/06/18 08:22:59;;;;;;;6.93;5.15;;;;;;;;;;5090901;28;20048;-63
2023/06/18 08:25:24;;;;;;;10.57;5.25;;;;;;;;;;5072905;28;20036;-63
2023/06/18 08:27:49;;;;;;;5.40;4.88;;;;;;;;;;5072997;28;20510;-62
2023/06/18 08:30:15;;;;;;;5.68;5.15;;;;;;;;;;5090757;28;20040;-63
2023/06/18 08:32:40;;;;;;;6.03;5.43;;;;;;;;;;5090435;28;20407;-63
2023/06/18 08:35:06;;;;;;;5.50;5.03;;;;;;;;;;5072615;28;20036;-63
2023/06/18 08:37:31;;;;;;;6.10;5.50;;;;;;;;;;5090387;28;20039;-63
2023/06/18 08:39:56;;;;;;;6.10;5.53;;;;;;;;;;5073844;28;20079;-67
2023/06/18 08:42:23;;;;;;;7.30;5.72;;;;;;;;;;5076239;28;20043;-63
2023/06/18 08:44:50;;;;;;;6.30;5.70;;;;;;;;;;5059048;28;20566;-63
2023/06/18 08:47:16;;;;;;;5.00;4.50;;;;;;;;;;5094159;28;20487;-63
2023/06/18 08:49:42;;;;;;;5.93;4.63;;;;;;;;;;5076128;28;20217;-63
2023/06/18 08:52:08;;;;;;;5.07;4.00;;;;;;;;;;5093205;28;20032;-63
2023/06/18 08:54:34;;;;;;;4.95;4.18;;;;;;;;;;5093377;28;20476;-63
2023/06/18 08:57:13;;;;;;;5.25;4.85;;;;;;;;;;5093137;28;20047;-63
2023/06/18 08:59:40;;;;;;;5.07;4.68;;;;;;;;;;5092933;28;20062;-63
2023/06/18 09:02:05;;;;;;;5.10;4.60;;;;;;;;;;5075319;28;20040;-63
2023/06/18 09:04:32;;;;;;;4.65;4.28;;;;;;;;;;5092920;28;20040;-63
2023/06/18 09:07:00;;;;;;;6.57;4.55;;;;;;;;;;5074493;28;20474;-63
2023/06/18 09:09:25;;;;;;;5.22;4.18;;;;;;;;;;5074860;28;20050;-63
2023/06/18 09:11:51;;;;;;;4.55;4.15;;;;;;;;;;5093057;28;20047;-63
2023/06/18 09:14:18;;;;;;;4.72;4.30;;;;;;;;;;5074033;28;20036;-63
2023/06/18 09:16:43;;;;;;;6.47;4.80;;;;;;;;;;5074924;28;20356;-63
2023/06/18 09:19:09;;;;;;;5.75;4.20;;;;;;;;;;5074255;28;20401;-63
2023/06/18 09:21:38;;;;;;;5.18;4.55;;;;;;;;;;5074650;28;20028;-63
2023/06/18 09:24:11;;;;;;;5.50;4.45;;;;;;;;;;5092310;28;20044;-63
2023/06/18 09:26:36;;;;;;;5.00;4.60;;;;;;;;;;5092283;28;20096;-63
2023/06/18 09:29:05;;;;;;;4.50;4.10;;;;;;;;;;5092766;28;20036;-63
2023/06/18 09:31:30;;;;;;;7.78;4.38;;;;;;;;;;5092736;28;20040;-63
2023/06/18 09:33:56;;;;;;;5.88;4.88;;;;;;;;;;5092412;28;20032;-63
2023/06/18 09:36:23;;;;;;;6.25;5.03;;;;;;;;;;5054431;28;1100234;-63
2023/06/18 09:38:49;;;;;;;4.82;4.32;;;;;;;;;;5093871;28;20089;-63
2023/06/18 09:41:17;;;;;;;7.20;4.93;;;;;;;;;;5075570;28;20131;-63
2023/06/18 09:43:45;;;;;;;5.80;5.20;;;;;;;;;;5093678;28;20120;-63
2023/06/18 09:46:11;;;;;;;5.50;5.00;;;;;;;;;;5093600;28;20079;-63
2023/06/18 09:48:42;;;;;;;6.53;5.57;;;;;;;;;;5075243;28;20032;-63
2023/06/18 09:51:07;;;;;;;5.38;4.85;;;;;;;;;;5091824;28;20119;-63
2023/06/18 09:53:33;;;;;;;5.57;5.07;;;;;;;;;;5075025;28;20071;-63
2023/06/18 09:56:09;;;;;;;4.70;4.28;;;;;;;;;;5093603;28;20562;-63
2023/06/18 09:58:41;;;;;;;4.55;4.15;;;;;;;;;;5058491;28;20131;-63
2023/06/18 10:01:07;;;;;;;5.03;4.13;;;;;;;;;;5093479;28;20047;-63
2023/06/18 10:03:32;;;;;;;5.32;4.35;;;;;;;;;;5093114;28;20032;-63
2023/06/18 10:06:06;;;;;;;4.82;4.50;;;;;;;;;;5093580;28;20036;-63
2023/06/18 10:08:31;;;;;;;4.88;4.47;;;;;;;;;;5092988;28;20042;-63
2023/06/18 10:10:57;;;;;;;4.95;4.43;;;;;;;;;;5093124;28;20452;-63
2023/06/18 10:13:23;;;;;;;5.10;4.45;;;;;;;;;;5093180;28;20036;-63
2023/06/18 10:15:49;;;;;;;5.38;4.88;;;;;;;;;;5075200;28;20113;-63
2023/06/18 10:18:22;;;;;;;5.20;4.78;;;;;;;;;;5075011;28;20036;-63
2023/06/18 10:20:47;;;;;;;5.82;5.18;;;;;;;;;;5092218;28;20370;-63
2023/06/18 10:23:13;;;;;;;5.53;5.15;;;;;;;;;;5092633;28;20567;-63
2023/06/18 10:25:39;;;;;;;6.22;5.28;;;;;;;;;;5092704;28;20027;-63
2023/06/18 10:28:08;;;;;;;6.05;5.60;;;;;;;;;;5074915;28;20040;-63
2023/06/18 10:30:33;;;;;;;5.43;5.03;;;;;;;;;;5093637;28;20134;-63
2023/06/18 10:32:58;;;;;;;6.25;5.47;;;;;;;;;;5094285;28;20131;-63
2023/06/18 10:35:24;;;;;;;5.70;5.20;;;;;;;;;;5092856;28;20040;-63
2023/06/18 10:37:50;;;;;;;5.88;5.40;;;;;;;;;;5091910;28;20132;-63
2023/06/18 10:40:15;;;;;;;5.45;5.00;;;;;;;;;;5091485;28;20039;-63
2023/06/18 10:42:41;;;;;;;6.13;5.63;;;;;;;;;;5092044;28;20036;-63
2023/06/18 10:45:13;;;;;;;8.32;5.22;;;;;;;;;;5074204;28;20054;-63
2023/06/18 10:47:39;;;;;;;5.30;4.80;;;;;;;;;;5091801;28;20396;-63
2023/06/18 10:50:07;;;;;;;5.60;5.10;;;;;;;;;;5073666;28;20065;-63
2023/06/18 10:52:34;;;;;;;5.15;4.72;;;;;;;;;;5091876;28;20452;-63
2023/06/18 10:55:06;;;;;;;5.28;4.78;;;;;;;;;;5092220;28;20027;-63
2023/06/18 10:57:37;;;;;;;5.13;4.72;;;;;;;;;;5074220;28;20113;-63
2023/06/18 11:00:13;;;;;;;4.78;4.45;;;;;;;;;;5093476;28;20059;-67
2023/06/18 11:02:39;;;;;;;5.38;4.88;;;;;;;;;;5093223;28;20120;-66
2023/06/18 11:05:06;;;;;;;5.03;4.63;;;;;;;;;;5075209;28;20049;-63
2023/06/18 11:07:31;;;;;;;5.45;4.95;;;;;;;;;;5092036;28;20070;-63
2023/06/18 11:10:01;;;;;;;4.85;4.45;;;;;;;;;;5091661;28;20507;-63
2023/06/18 11:12:44;;;;;;;5.05;4.63;;;;;;;;;;5091418;28;20399;-63
2023/06/18 11:15:10;;;;;;;6.10;5.40;;;;;;;;;;5091901;28;20047;-63
2023/06/18 11:17:35;;;;;;;4.75;4.30;;;;;;;;;;5091712;28;20043;-63
2023/06/18 11:20:01;;;;;;;5.50;3.95;;;;;;;;;;5073824;28;20111;-63
2023/06/18 11:22:28;;;;;;;5.05;4.55;;;;;;;;;;5091649;28;20039;-63
2023/06/18 11:24:55;;;;;;;4.97;4.57;;;;;;;;;;5073726;28;20475;-63
2023/06/18 11:27:21;;;;;;;4.43;3.47;;;;;;;;;;5073431;28;20502;-63
2023/06/18 11:29:47;;;;;;;3.83;3.53;;;;;;;;;;5091518;28;20040;-63
2023/06/18 11:32:13;;;;;;;3.63;3.42;;;;;;;;;;5073225;28;20434;-63
2023/06/18 11:34:42;;;;;;;3.30;3.10;;;;;;;;;;5090090;28;20040;-63
2023/06/18 11:37:08;;;;;;;3.95;3.67;;;;;;;;;;5088632;28;20048;-63
2023/06/18 11:39:33;;;;;;;4.53;4.22;;;;;;;;;;5091437;28;20548;-63
2023/06/18 11:42:14;;;;;;;4.90;4.50;;;;;;;;;;5091323;28;20063;-63
2023/06/18 11:44:53;;;;;;;4.15;3.85;;;;;;;;;;5073411;28;20464;-63
2023/06/18 11:47:19;;;;;;;4.00;3.70;;;;;;;;;;5072397;28;20063;-63
2023/06/18 11:49:45;;;;;;;4.45;4.15;;;;;;;;;;5091268;28;20765;-63
2023/06/18 11:52:21;;;;;;;4.43;4.03;;;;;;;;;;5090853;28;20079;-63
2023/06/18 11:54:46;;;;;;;4.85;4.55;;;;;;;;;;5090548;28;20044;-63
2023/06/18 11:57:13;;;;;;;4.03;3.80;;;;;;;;;;5090610;28;20085;-63
2023/06/18 11:59:41;;;;;;;4.40;4.10;;;;;;;;;;5091004;28;20089;-63
2023/06/18 12:02:14;;;;;;;4.45;4.15;;;;;;;;;;5091054;28;20127;-63
2023/06/18 12:04:40;;;;;;;4.22;3.80;;;;;;;;;;5091046;28;20040;-63
2023/06/18 12:07:05;;;;;;;4.60;4.30;;;;;;;;;;5090945;28;20044;-63
2023/06/18 12:09:38;;;;;;;3.92;3.63;;;;;;;;;;5090980;28;20046;-63
2023/06/18 12:12:22;;;;;;;3.38;3.08;;;;;;;;;;5090918;28;20818;-63
2023/06/18 12:14:56;;;;;;;3.35;3.15;;;;;;;;;;5090270;28;20036;-63
2023/06/18 12:17:33;;;;;;;4.25;3.10;;;;;;;;;;5091063;28;20040;-63
2023/06/18 12:20:05;;;;;;;3.33;3.10;;;;;;;;;;5072777;28;20096;-63
2023/06/18 12:22:31;;;;;;;4.00;3.80;;;;;;;;;;5072296;28;20050;-63
2023/06/18 12:24:56;;;;;;;3.83;3.63;;;;;;;;;;5090756;28;20044;-63
2023/06/18 12:27:24;;;;;;;3.60;3.40;;;;;;;;;;5090955;28;20044;-63
2023/06/18 12:29:50;;;;;;;3.60;3.40;;;;;;;;;;5090921;28;20059;-63
2023/06/18 12:32:15;;;;;;;3.50;3.30;;;;;;;;;;5090505;28;20040;-63
2023/06/18 12:34:41;;;;;;;3.63;3.33;;;;;;;;;;5090507;28;20085;-63
2023/06/18 12:37:07;;;;;;;3.80;3.60;;;;;;;;;;5090523;28;20048;-63
2023/06/18 12:39:32;;;;;;;3.88;3.67;;;;;;;;;;5091258;28;20033;-63
2023/06/18 12:41:58;;;;;;;4.65;4.35;;;;;;;;;;5072553;28;20105;-63
2023/06/18 12:44:24;;;;;;;4.03;3.75;;;;;;;;;;5090670;28;20065;-63
2023/06/18 12:46:50;;;;;;;4.60;4.30;;;;;;;;;;5090970;28;20135;-63
2023/06/18 12:49:17;;;;;;;5.07;4.78;;;;;;;;;;5090631;28;20063;-63
2023/06/18 12:51:46;;;;;;;4.63;4.32;;;;;;;;;;5090413;28;20039;-63
2023/06/18 12:54:14;;;;;;;4.57;4.28;;;;;;;;;;5090556;28;20028;-63
2023/06/18 12:56:50;;;;;;;3.55;3.35;;;;;;;;;;5090834;28;20044;-63
2023/06/18 12:59:19;;;;;;;4.43;4.13;;;;;;;;;;5090081;28;20617;-63
2023/06/18 13:01:47;;;;;;;3.95;3.72;;;;;;;;;;5090445;28;20036;-63
2023/06/18 13:04:13;;;;;;;3.88;3.67;;;;;;;;;;5071930;28;20479;-63
2023/06/18 13:06:39;;;;;;;4.50;4.20;;;;;;;;;;5089793;28;20047;-63
2023/06/18 13:09:05;;;;;;;4.43;4.13;;;;;;;;;;5071803;28;20044;-63
2023/06/18 13:11:35;;;;;;;4.05;3.80;;;;;;;;;;5089714;28;20028;-63
2023/06/18 13:14:01;;;;;;;4.00;3.80;;;;;;;;;;5071682;28;20044;-63
2023/06/18 13:16:27;;;;;;;3.97;3.78;;;;;;;;;;5090679;28;20555;-63
2023/06/18 13:18:52;;;;;;;4.38;3.97;;;;;;;;;;5091502;28;20124;-63
2023/06/18 13:21:17;;;;;;;4.53;4.22;;;;;;;;;;5089998;28;20040;-63
2023/06/18 13:23:43;;;;;;;4.50;4.25;;;;;;;;;;5072409;28;20063;-63
2023/06/18 13:26:11;;;;;;;4.43;4.07;;;;;;;;;;5092186;28;20047;-67
2023/06/18 13:28:37;;;;;;;3.83;3.63;;;;;;;;;;5094254;28;20039;-63
2023/06/18 13:31:02;;;;;;;4.57;4.38;;;;;;;;;;5093958;28;20044;-63
2023/06/18 13:33:27;;;;;;;5.20;4.90;;;;;;;;;;5093999;28;20123;-63
2023/06/18 13:35:53;;;;;;;5.05;4.75;;;;;;;;;;5071655;28;20045;-63
2023/06/18 13:38:18;;;;;;;5.30;4.80;;;;;;;;;;5072467;28;20115;-63
2023/06/18 13:40:44;;;;;;;5.65;5.28;;;;;;;;;;5073049;28;20389;-63
2023/06/18 13:43:11;;;;;;;5.45;4.95;;;;;;;;;;5073316;28;20043;-63
2023/06/18 13:45:38;;;;;;;6.38;5.35;;;;;;;;;;5073606;28;20094;-63
2023/06/18 13:48:04;;;;;;;5.78;5.38;;;;;;;;;;5073382;28;20045;-63
2023/06/18 13:50:29;;;;;;;5.80;5.30;;;;;;;;;;5073309;28;20298;-63
2023/06/18 13:52:54;;;;;;;4.85;4.55;;;;;;;;;;5073199;28;20074;-63
2023/06/18 13:55:20;;;;;;;4.30;4.00;;;;;;;;;;5073330;28;20052;-63
2023/06/18 13:57:46;;;;;;;4.50;4.15;;;;;;;;;;5073158;28;20032;-63
2023/06/18 14:00:11;;;;;;;3.95;3.75;;;;;;;;;;5072529;28;20354;-63
2023/06/18 14:02:37;;;;;;;4.00;3.80;;;;;;;;;;5072588;28;20090;-63
2023/06/18 14:05:02;;;;;;;4.47;4.18;;;;;;;;;;5072865;28;20086;-63
2023/06/18 14:07:30;;;;;;;3.97;3.72;;;;;;;;;;5071804;28;20032;-63
2023/06/18 14:09:55;;;;;;;4.13;3.92;;;;;;;;;;5073096;28;20049;-63
2023/06/18 14:12:21;;;;;;;3.78;3.47;;;;;;;;;;5071513;28;20038;-63
2023/06/18 14:14:46;;;;;;;3.88;3.58;;;;;;;;;;5071803;28;20467;-63
2023/06/18 14:17:11;;;;;;;4.28;3.60;;;;;;;;;;5072836;28;20033;-63
2023/06/18 14:19:40;;;;;;;4.57;4.28;;;;;;;;;;5071073;28;20074;-63
2023/06/18 14:22:06;;;;;;;3.63;3.42;;;;;;;;;;5072282;28;20109;-63
2023/06/18 14:24:31;;;;;;;3.53;3.33;;;;;;;;;;5071784;28;20048;-63
2023/06/18 14:26:57;;;;;;;3.55;3.35;;;;;;;;;;5071721;28;20112;-63
2023/06/18 14:29:22;;;;;;;3.42;3.22;;;;;;;;;;5071202;28;20024;-63
2023/06/18 14:31:47;;;;;;;3.13;2.92;;;;;;;;;;5071490;28;20048;-63
2023/06/18 14:34:14;;;;;;;2.95;2.75;;;;;;;;;;5072117;28;20051;-63
2023/06/18 14:36:39;;;;;;;3.25;3.05;;;;;;;;;;5084313;28;20044;-63
2023/06/18 14:39:05;;;;;;;3.40;3.20;;;;;;;;;;5091143;28;20039;-63